sensor_id;sensor_type;location;lat;lon;timestamp;P1;durP1;ratioP1;P2;durP2;ratioP2
19163;SDS011;9714;51.208;4.242;2023-02-28T00:00:44;11.53;;;4.63;;
19163;SDS011;9714;51.208;4.242;2023-02-28T00:03:11;10.10;;;3.93;;
19163;SDS011;9714;51.208;4.242;2023-02-28T00:05:42;12.60;;;4.17;;
19163;SDS011;9714;51.208;4.242;2023-02-28T00:08:12;21.37;;;4.77;;
19163;SDS011;9714;51.208;4.242;2023-02-28T00:10:45;12.07;;;4.63;;
19163;SDS011;9714;51.208;4.242;2023-02-28T00:13:18;13.27;;;4.70;;
19163;SDS011;9714;51.208;4.242;2023-02-28T00:15:45;11.43;;;4.53;;
19163;SDS011;9714;51.208;4.242;2023-02-28T00:18:16;16.13;;;4.20;;
19163;SDS011;9714;51.208;4.242;2023-02-28T00:20:50;11.67;;;5.00;;
19163;SDS011;9714;51.208;4.242;2023-02-28T00:23:17;13.53;;;4.57;;
19163;SDS011;9714;51.208;4.242;2023-02-28T00:25:46;14.87;;;4.60;;
19163;SDS011;9714;51.208;4.242;2023-02-28T00:28:14;14.13;;;5.40;;
19163;SDS011;9714;51.208;4.242;2023-02-28T00:30:42;11.97;;;4.60;;
19163;SDS011;9714;51.208;4.242;2023-02-28T00:33:11;11.37;;;4.70;;
19163;SDS011;9714;51.208;4.242;2023-02-28T00:35:41;11.57;;;4.57;;
19163;SDS011;9714;51.208;4.242;2023-02-28T00:38:13;11.10;;;4.63;;
19163;SDS011;9714;51.208;4.242;2023-02-28T00:43:20;11.87;;;5.00;;
19163;SDS011;9714;51.208;4.242;2023-02-28T00:45:53;11.93;;;4.50;;
19163;SDS011;9714;51.208;4.242;2023-02-28T00:48:22;14.30;;;4.77;;
19163;SDS011;9714;51.208;4.242;2023-02-28T00:50:53;13.20;;;5.10;;
19163;SDS011;9714;51.208;4.242;2023-02-28T00:53:25;17.63;;;4.30;;
19163;SDS011;9714;51.208;4.242;2023-02-28T00:55:52;12.57;;;4.70;;
19163;SDS011;9714;51.208;4.242;2023-02-28T00:58:20;12.23;;;4.40;;
19163;SDS011;9714;51.208;4.242;2023-02-28T01:00:48;13.13;;;4.53;;
19163;SDS011;9714;51.208;4.242;2023-02-28T01:03:16;9.60;;;3.93;;
19163;SDS011;9714;51.208;4.242;2023-02-28T01:05:44;13.10;;;4.83;;
19163;SDS011;9714;51.208;4.242;2023-02-28T01:08:13;13.53;;;4.50;;
19163;SDS011;9714;51.208;4.242;2023-02-28T01:10:48;17.57;;;4.97;;
19163;SDS011;9714;51.208;4.242;2023-02-28T01:13:26;12.20;;;4.67;;
19163;SDS011;9714;51.208;4.242;2023-02-28T01:15:55;13.07;;;4.93;;
19163;SDS011;9714;51.208;4.242;2023-02-28T01:18:24;14.27;;;5.07;;
19163;SDS011;9714;51.208;4.242;2023-02-28T01:20:52;10.70;;;4.70;;
19163;SDS011;9714;51.208;4.242;2023-02-28T01:23:22;14.67;;;5.77;;
19163;SDS011;9714;51.208;4.242;2023-02-28T01:25:52;12.53;;;5.20;;
19163;SDS011;9714;51.208;4.242;2023-02-28T01:28:20;12.20;;;5.00;;
19163;SDS011;9714;51.208;4.242;2023-02-28T01:30:51;12.97;;;4.80;;
19163;SDS011;9714;51.208;4.242;2023-02-28T01:33:20;11.47;;;4.60;;
19163;SDS011;9714;51.208;4.242;2023-02-28T01:36:02;13.77;;;4.93;;
19163;SDS011;9714;51.208;4.242;2023-02-28T01:38:33;16.90;;;5.37;;
19163;SDS011;9714;51.208;4.242;2023-02-28T01:41:03;13.23;;;5.20;;
19163;SDS011;9714;51.208;4.242;2023-02-28T01:43:52;12.93;;;5.03;;
19163;SDS011;9714;51.208;4.242;2023-02-28T01:46:24;12.83;;;5.13;;
19163;SDS011;9714;51.208;4.242;2023-02-28T01:48:54;10.37;;;4.97;;
19163;SDS011;9714;51.208;4.242;2023-02-28T01:51:28;11.33;;;4.73;;
19163;SDS011;9714;51.208;4.242;2023-02-28T01:54:03;14.23;;;4.87;;
19163;SDS011;9714;51.208;4.242;2023-02-28T01:56:41;11.70;;;4.30;;
19163;SDS011;9714;51.208;4.242;2023-02-28T01:59:13;14.87;;;5.00;;
19163;SDS011;9714;51.208;4.242;2023-02-28T02:01:46;12.80;;;5.00;;
19163;SDS011;9714;51.208;4.242;2023-02-28T02:04:14;13.77;;;5.53;;
19163;SDS011;9714;51.208;4.242;2023-02-28T02:06:44;12.50;;;4.97;;
19163;SDS011;9714;51.208;4.242;2023-02-28T02:09:14;12.57;;;5.47;;
19163;SDS011;9714;51.208;4.242;2023-02-28T02:11:44;14.57;;;5.47;;
19163;SDS011;9714;51.208;4.242;2023-02-28T02:17:14;12.07;;;5.37;;
19163;SDS011;9714;51.208;4.242;2023-02-28T02:23:02;12.00;;;5.00;;
19163;SDS011;9714;51.208;4.242;2023-02-28T02:25:49;13.83;;;4.67;;
19163;SDS011;9714;51.208;4.242;2023-02-28T02:28:35;15.60;;;6.47;;
19163;SDS011;9714;51.208;4.242;2023-02-28T02:31:24;18.00;;;5.40;;
19163;SDS011;9714;51.208;4.242;2023-02-28T02:34:22;12.43;;;5.10;;
19163;SDS011;9714;51.208;4.242;2023-02-28T02:36:57;14.00;;;5.00;;
19163;SDS011;9714;51.208;4.242;2023-02-28T02:42:13;11.50;;;5.47;;
19163;SDS011;9714;51.208;4.242;2023-02-28T02:44:50;16.97;;;5.63;;
19163;SDS011;9714;51.208;4.242;2023-02-28T02:47:31;13.20;;;5.53;;
19163;SDS011;9714;51.208;4.242;2023-02-28T02:50:03;16.70;;;5.40;;
19163;SDS011;9714;51.208;4.242;2023-02-28T02:52:36;14.23;;;6.40;;
19163;SDS011;9714;51.208;4.242;2023-02-28T02:55:10;12.63;;;5.90;;
19163;SDS011;9714;51.208;4.242;2023-02-28T02:57:45;16.10;;;5.67;;
19163;SDS011;9714;51.208;4.242;2023-02-28T03:00:18;14.50;;;5.40;;
19163;SDS011;9714;51.208;4.242;2023-02-28T03:02:50;16.10;;;5.80;;
19163;SDS011;9714;51.208;4.242;2023-02-28T03:05:23;13.17;;;4.93;;
19163;SDS011;9714;51.208;4.242;2023-02-28T03:07:55;15.23;;;5.50;;
19163;SDS011;9714;51.208;4.242;2023-02-28T03:10:41;18.57;;;5.90;;
19163;SDS011;9714;51.208;4.242;2023-02-28T03:13:14;18.97;;;6.10;;
19163;SDS011;9714;51.208;4.242;2023-02-28T03:15:58;14.33;;;4.97;;
19163;SDS011;9714;51.208;4.242;2023-02-28T03:18:43;17.37;;;5.83;;
19163;SDS011;9714;51.208;4.242;2023-02-28T03:21:24;13.73;;;5.07;;
19163;SDS011;9714;51.208;4.242;2023-02-28T03:23:58;12.73;;;5.63;;
19163;SDS011;9714;51.208;4.242;2023-02-28T03:26:37;14.63;;;5.80;;
19163;SDS011;9714;51.208;4.242;2023-02-28T03:29:12;14.87;;;5.60;;
19163;SDS011;9714;51.208;4.242;2023-02-28T03:31:46;14.23;;;6.03;;
19163;SDS011;9714;51.208;4.242;2023-02-28T03:34:19;17.30;;;5.87;;
19163;SDS011;9714;51.208;4.242;2023-02-28T03:36:57;15.53;;;5.87;;
19163;SDS011;9714;51.208;4.242;2023-02-28T03:39:37;15.80;;;5.33;;
19163;SDS011;9714;51.208;4.242;2023-02-28T03:42:08;20.10;;;5.77;;
19163;SDS011;9714;51.208;4.242;2023-02-28T03:44:40;17.27;;;5.37;;
19163;SDS011;9714;51.208;4.242;2023-02-28T03:47:11;13.03;;;4.97;;
19163;SDS011;9714;51.208;4.242;2023-02-28T03:49:42;15.33;;;5.53;;
19163;SDS011;9714;51.208;4.242;2023-02-28T03:52:15;15.37;;;5.57;;
19163;SDS011;9714;51.208;4.242;2023-02-28T03:54:46;13.23;;;5.40;;
19163;SDS011;9714;51.208;4.242;2023-02-28T03:57:17;15.87;;;5.10;;
19163;SDS011;9714;51.208;4.242;2023-02-28T03:59:52;14.70;;;5.43;;
19163;SDS011;9714;51.208;4.242;2023-02-28T04:02:23;16.57;;;5.10;;
19163;SDS011;9714;51.208;4.242;2023-02-28T04:04:50;16.83;;;5.87;;
19163;SDS011;9714;51.208;4.242;2023-02-28T04:07:22;13.37;;;5.33;;
19163;SDS011;9714;51.208;4.242;2023-02-28T04:09:51;15.10;;;5.23;;
19163;SDS011;9714;51.208;4.242;2023-02-28T04:12:19;15.10;;;5.27;;
19163;SDS011;9714;51.208;4.242;2023-02-28T04:14:49;12.83;;;4.80;;
19163;SDS011;9714;51.208;4.242;2023-02-28T04:17:18;13.33;;;5.27;;
19163;SDS011;9714;51.208;4.242;2023-02-28T04:19:47;13.80;;;4.80;;
19163;SDS011;9714;51.208;4.242;2023-02-28T04:22:15;13.70;;;5.33;;
19163;SDS011;9714;51.208;4.242;2023-02-28T04:24:50;13.57;;;5.20;;
19163;SDS011;9714;51.208;4.242;2023-02-28T04:27:25;14.60;;;4.30;;
19163;SDS011;9714;51.208;4.242;2023-02-28T04:29:58;12.83;;;4.93;;
19163;SDS011;9714;51.208;4.242;2023-02-28T04:32:26;14.27;;;5.27;;
19163;SDS011;9714;51.208;4.242;2023-02-28T04:34:55;20.23;;;4.90;;
19163;SDS011;9714;51.208;4.242;2023-02-28T04:37:23;11.60;;;4.70;;
19163;SDS011;9714;51.208;4.242;2023-02-28T04:39:56;11.87;;;4.50;;
19163;SDS011;9714;51.208;4.242;2023-02-28T04:42:23;15.30;;;5.70;;
19163;SDS011;9714;51.208;4.242;2023-02-28T04:44:53;17.87;;;5.37;;
19163;SDS011;9714;51.208;4.242;2023-02-28T04:47:26;14.63;;;5.17;;
19163;SDS011;9714;51.208;4.242;2023-02-28T04:50:00;13.17;;;5.37;;
19163;SDS011;9714;51.208;4.242;2023-02-28T04:52:36;13.97;;;5.17;;
19163;SDS011;9714;51.208;4.242;2023-02-28T04:55:07;15.10;;;5.40;;
19163;SDS011;9714;51.208;4.242;2023-02-28T05:00:09;12.07;;;5.20;;
19163;SDS011;9714;51.208;4.242;2023-02-28T05:02:39;14.50;;;5.13;;
19163;SDS011;9714;51.208;4.242;2023-02-28T05:05:08;13.07;;;5.23;;
19163;SDS011;9714;51.208;4.242;2023-02-28T05:07:41;14.33;;;6.33;;
19163;SDS011;9714;51.208;4.242;2023-02-28T05:10:12;14.30;;;5.27;;
19163;SDS011;9714;51.208;4.242;2023-02-28T05:12:39;15.97;;;5.37;;
19163;SDS011;9714;51.208;4.242;2023-02-28T05:15:10;13.53;;;4.30;;
19163;SDS011;9714;51.208;4.242;2023-02-28T05:17:42;13.10;;;4.97;;
19163;SDS011;9714;51.208;4.242;2023-02-28T05:20:10;12.67;;;4.73;;
19163;SDS011;9714;51.208;4.242;2023-02-28T05:22:38;11.67;;;4.93;;
19163;SDS011;9714;51.208;4.242;2023-02-28T05:25:20;14.03;;;4.97;;
19163;SDS011;9714;51.208;4.242;2023-02-28T05:27:50;13.53;;;5.53;;
19163;SDS011;9714;51.208;4.242;2023-02-28T05:30:19;16.60;;;4.57;;
19163;SDS011;9714;51.208;4.242;2023-02-28T05:32:51;10.73;;;4.60;;
19163;SDS011;9714;51.208;4.242;2023-02-28T05:35:20;17.50;;;5.40;;
19163;SDS011;9714;51.208;4.242;2023-02-28T05:37:48;9.83;;;4.07;;
19163;SDS011;9714;51.208;4.242;2023-02-28T05:40:23;10.80;;;4.33;;
19163;SDS011;9714;51.208;4.242;2023-02-28T05:42:52;12.20;;;4.63;;
19163;SDS011;9714;51.208;4.242;2023-02-28T05:45:19;11.53;;;4.10;;
19163;SDS011;9714;51.208;4.242;2023-02-28T05:47:48;13.13;;;4.90;;
19163;SDS011;9714;51.208;4.242;2023-02-28T05:50:17;12.13;;;4.33;;
19163;SDS011;9714;51.208;4.242;2023-02-28T05:52:44;13.70;;;4.60;;
19163;SDS011;9714;51.208;4.242;2023-02-28T05:55:16;12.03;;;4.70;;
19163;SDS011;9714;51.208;4.242;2023-02-28T05:57:46;12.33;;;5.03;;
19163;SDS011;9714;51.208;4.242;2023-02-28T06:00:15;11.00;;;4.73;;
19163;SDS011;9714;51.208;4.242;2023-02-28T06:02:44;14.57;;;5.97;;
19163;SDS011;9714;51.208;4.242;2023-02-28T06:05:13;17.37;;;5.90;;
19163;SDS011;9714;51.208;4.242;2023-02-28T06:07:44;16.00;;;5.20;;
19163;SDS011;9714;51.208;4.242;2023-02-28T06:10:12;14.60;;;5.30;;
19163;SDS011;9714;51.208;4.242;2023-02-28T06:12:41;12.60;;;5.17;;
19163;SDS011;9714;51.208;4.242;2023-02-28T06:17:51;12.43;;;4.60;;
19163;SDS011;9714;51.208;4.242;2023-02-28T06:20:20;15.37;;;5.80;;
19163;SDS011;9714;51.208;4.242;2023-02-28T06:22:47;13.27;;;5.40;;
19163;SDS011;9714;51.208;4.242;2023-02-28T06:27:54;14.37;;;4.50;;
19163;SDS011;9714;51.208;4.242;2023-02-28T06:30:23;15.57;;;5.23;;
19163;SDS011;9714;51.208;4.242;2023-02-28T06:32:54;14.60;;;5.53;;
19163;SDS011;9714;51.208;4.242;2023-02-28T06:35:27;15.60;;;5.13;;
19163;SDS011;9714;51.208;4.242;2023-02-28T06:38:00;12.17;;;5.13;;
19163;SDS011;9714;51.208;4.242;2023-02-28T06:40:28;12.87;;;4.37;;
19163;SDS011;9714;51.208;4.242;2023-02-28T06:42:57;23.93;;;5.37;;
19163;SDS011;9714;51.208;4.242;2023-02-28T06:45:31;13.83;;;4.87;;
19163;SDS011;9714;51.208;4.242;2023-02-28T06:47:59;15.23;;;5.27;;
19163;SDS011;9714;51.208;4.242;2023-02-28T06:50:27;12.03;;;4.97;;
19163;SDS011;9714;51.208;4.242;2023-02-28T06:52:59;14.13;;;4.67;;
19163;SDS011;9714;51.208;4.242;2023-02-28T06:55:31;21.10;;;5.20;;
19163;SDS011;9714;51.208;4.242;2023-02-28T06:57:58;15.40;;;5.30;;
19163;SDS011;9714;51.208;4.242;2023-02-28T07:00:26;13.73;;;4.43;;
19163;SDS011;9714;51.208;4.242;2023-02-28T07:02:55;14.20;;;5.67;;
19163;SDS011;9714;51.208;4.242;2023-02-28T07:05:24;14.97;;;5.30;;
19163;SDS011;9714;51.208;4.242;2023-02-28T07:07:52;19.20;;;5.80;;
19163;SDS011;9714;51.208;4.242;2023-02-28T07:10:19;17.70;;;5.60;;
19163;SDS011;9714;51.208;4.242;2023-02-28T07:12:53;20.40;;;5.83;;
19163;SDS011;9714;51.208;4.242;2023-02-28T07:15:22;23.87;;;6.70;;
19163;SDS011;9714;51.208;4.242;2023-02-28T07:17:57;16.33;;;5.70;;
19163;SDS011;9714;51.208;4.242;2023-02-28T07:20:24;13.20;;;5.60;;
19163;SDS011;9714;51.208;4.242;2023-02-28T07:22:53;11.73;;;5.07;;
19163;SDS011;9714;51.208;4.242;2023-02-28T07:25:28;10.53;;;4.50;;
19163;SDS011;9714;51.208;4.242;2023-02-28T07:27:59;14.10;;;4.30;;
19163;SDS011;9714;51.208;4.242;2023-02-28T07:30:26;12.47;;;4.77;;
19163;SDS011;9714;51.208;4.242;2023-02-28T07:32:53;15.47;;;5.37;;
19163;SDS011;9714;51.208;4.242;2023-02-28T07:35:22;15.60;;;5.10;;
19163;SDS011;9714;51.208;4.242;2023-02-28T07:37:50;12.73;;;5.10;;
19163;SDS011;9714;51.208;4.242;2023-02-28T07:40:17;14.10;;;4.63;;
19163;SDS011;9714;51.208;4.242;2023-02-28T07:42:44;12.73;;;4.87;;
19163;SDS011;9714;51.208;4.242;2023-02-28T07:47:43;15.33;;;4.30;;
19163;SDS011;9714;51.208;4.242;2023-02-28T07:50:13;21.50;;;6.03;;
19163;SDS011;9714;51.208;4.242;2023-02-28T07:52:43;18.60;;;5.97;;
19163;SDS011;9714;51.208;4.242;2023-02-28T07:55:10;18.83;;;6.27;;
19163;SDS011;9714;51.208;4.242;2023-02-28T07:57:44;19.57;;;6.43;;
19163;SDS011;9714;51.208;4.242;2023-02-28T08:00:12;15.50;;;5.17;;
19163;SDS011;9714;51.208;4.242;2023-02-28T08:05:31;18.43;;;5.83;;
19163;SDS011;9714;51.208;4.242;2023-02-28T08:08:00;17.80;;;5.30;;
19163;SDS011;9714;51.208;4.242;2023-02-28T08:10:28;10.77;;;4.30;;
19163;SDS011;9714;51.208;4.242;2023-02-28T08:12:57;16.77;;;4.10;;
19163;SDS011;9714;51.208;4.242;2023-02-28T08:15:27;13.10;;;4.80;;
19163;SDS011;9714;51.208;4.242;2023-02-28T08:17:55;12.60;;;4.57;;
19163;SDS011;9714;51.208;4.242;2023-02-28T08:20:25;11.03;;;3.87;;
19163;SDS011;9714;51.208;4.242;2023-02-28T08:23:12;11.17;;;4.00;;
19163;SDS011;9714;51.208;4.242;2023-02-28T08:25:52;10.97;;;3.47;;
19163;SDS011;9714;51.208;4.242;2023-02-28T08:28:23;12.37;;;3.43;;
19163;SDS011;9714;51.208;4.242;2023-02-28T08:30:53;9.97;;;3.83;;
19163;SDS011;9714;51.208;4.242;2023-02-28T08:33:20;10.97;;;3.90;;
19163;SDS011;9714;51.208;4.242;2023-02-28T08:35:48;12.23;;;3.67;;
19163;SDS011;9714;51.208;4.242;2023-02-28T08:38:22;9.37;;;2.87;;
19163;SDS011;9714;51.208;4.242;2023-02-28T08:40:56;7.77;;;3.00;;
19163;SDS011;9714;51.208;4.242;2023-02-28T08:43:24;12.60;;;3.50;;
19163;SDS011;9714;51.208;4.242;2023-02-28T08:45:52;8.70;;;2.97;;
19163;SDS011;9714;51.208;4.242;2023-02-28T08:48:20;8.77;;;2.97;;
19163;SDS011;9714;51.208;4.242;2023-02-28T08:50:54;13.53;;;3.50;;
19163;SDS011;9714;51.208;4.242;2023-02-28T08:53:25;10.00;;;3.40;;
19163;SDS011;9714;51.208;4.242;2023-02-28T08:55:59;13.67;;;3.13;;
19163;SDS011;9714;51.208;4.242;2023-02-28T08:58:28;13.27;;;2.87;;
19163;SDS011;9714;51.208;4.242;2023-02-28T09:00:56;8.83;;;2.70;;
19163;SDS011;9714;51.208;4.242;2023-02-28T09:05:56;7.17;;;2.63;;
19163;SDS011;9714;51.208;4.242;2023-02-28T09:08:28;12.57;;;2.90;;
19163;SDS011;9714;51.208;4.242;2023-02-28T09:10:56;14.47;;;2.97;;
19163;SDS011;9714;51.208;4.242;2023-02-28T09:13:27;7.03;;;2.80;;
19163;SDS011;9714;51.208;4.242;2023-02-28T09:15:57;7.37;;;2.47;;
19163;SDS011;9714;51.208;4.242;2023-02-28T09:18:28;8.80;;;2.70;;
19163;SDS011;9714;51.208;4.242;2023-02-28T09:21:02;8.67;;;3.00;;
19163;SDS011;9714;51.208;4.242;2023-02-28T09:23:33;9.63;;;2.67;;
19163;SDS011;9714;51.208;4.242;2023-02-28T09:26:05;10.47;;;2.67;;
19163;SDS011;9714;51.208;4.242;2023-02-28T09:28:35;10.80;;;2.00;;
19163;SDS011;9714;51.208;4.242;2023-02-28T09:31:03;6.13;;;1.87;;
19163;SDS011;9714;51.208;4.242;2023-02-28T09:33:30;6.37;;;1.77;;
19163;SDS011;9714;51.208;4.242;2023-02-28T09:36:00;3.73;;;1.50;;
19163;SDS011;9714;51.208;4.242;2023-02-28T09:38:33;6.20;;;2.13;;
19163;SDS011;9714;51.208;4.242;2023-02-28T09:41:11;5.23;;;1.23;;
19163;SDS011;9714;51.208;4.242;2023-02-28T09:43:43;4.97;;;1.70;;
19163;SDS011;9714;51.208;4.242;2023-02-28T09:46:17;4.90;;;1.57;;
19163;SDS011;9714;51.208;4.242;2023-02-28T09:49:05;5.33;;;1.80;;
19163;SDS011;9714;51.208;4.242;2023-02-28T09:51:40;9.37;;;1.80;;
19163;SDS011;9714;51.208;4.242;2023-02-28T09:54:15;7.47;;;2.07;;
19163;SDS011;9714;51.208;4.242;2023-02-28T09:56:45;8.30;;;1.80;;
19163;SDS011;9714;51.208;4.242;2023-02-28T09:59:29;10.10;;;2.73;;
19163;SDS011;9714;51.208;4.242;2023-02-28T10:02:10;9.70;;;3.07;;
19163;SDS011;9714;51.208;4.242;2023-02-28T10:04:50;7.47;;;2.50;;
19163;SDS011;9714;51.208;4.242;2023-02-28T10:07:38;4.30;;;1.57;;
19163;SDS011;9714;51.208;4.242;2023-02-28T10:10:21;7.67;;;2.20;;
19163;SDS011;9714;51.208;4.242;2023-02-28T10:12:52;5.70;;;2.20;;
19163;SDS011;9714;51.208;4.242;2023-02-28T10:15:22;8.67;;;2.17;;
19163;SDS011;9714;51.208;4.242;2023-02-28T10:17:59;4.47;;;1.83;;
19163;SDS011;9714;51.208;4.242;2023-02-28T10:20:35;11.90;;;2.43;;
19163;SDS011;9714;51.208;4.242;2023-02-28T10:25:42;10.67;;;2.80;;
19163;SDS011;9714;51.208;4.242;2023-02-28T10:28:13;7.80;;;2.33;;
19163;SDS011;9714;51.208;4.242;2023-02-28T10:30:43;9.57;;;2.10;;
19163;SDS011;9714;51.208;4.242;2023-02-28T10:33:20;7.97;;;2.20;;
19163;SDS011;9714;51.208;4.242;2023-02-28T10:35:50;6.37;;;2.10;;
19163;SDS011;9714;51.208;4.242;2023-02-28T10:38:23;5.70;;;2.07;;
19163;SDS011;9714;51.208;4.242;2023-02-28T10:40:54;6.07;;;1.63;;
19163;SDS011;9714;51.208;4.242;2023-02-28T10:43:31;9.60;;;2.10;;
19163;SDS011;9714;51.208;4.242;2023-02-28T10:46:13;7.27;;;1.90;;
19163;SDS011;9714;51.208;4.242;2023-02-28T10:49:01;9.87;;;2.37;;
19163;SDS011;9714;51.208;4.242;2023-02-28T10:51:34;5.77;;;1.83;;
19163;SDS011;9714;51.208;4.242;2023-02-28T10:54:04;5.87;;;1.83;;
19163;SDS011;9714;51.208;4.242;2023-02-28T10:56:34;4.70;;;1.80;;
19163;SDS011;9714;51.208;4.242;2023-02-28T10:59:22;7.67;;;2.07;;
19163;SDS011;9714;51.208;4.242;2023-02-28T11:01:55;5.10;;;1.80;;
19163;SDS011;9714;51.208;4.242;2023-02-28T11:04:32;8.90;;;2.50;;
19163;SDS011;9714;51.208;4.242;2023-02-28T11:07:04;5.13;;;1.60;;
19163;SDS011;9714;51.208;4.242;2023-02-28T11:09:48;2.07;;;1.07;;
19163;SDS011;9714;51.208;4.242;2023-02-28T11:12:21;5.00;;;1.40;;
19163;SDS011;9714;51.208;4.242;2023-02-28T11:14:52;4.37;;;1.30;;
19163;SDS011;9714;51.208;4.242;2023-02-28T11:17:24;5.23;;;1.40;;
19163;SDS011;9714;51.208;4.242;2023-02-28T11:19:57;3.93;;;1.40;;
19163;SDS011;9714;51.208;4.242;2023-02-28T11:22:31;6.93;;;1.40;;
19163;SDS011;9714;51.208;4.242;2023-02-28T11:25:06;4.60;;;1.30;;
19163;SDS011;9714;51.208;4.242;2023-02-28T11:27:47;4.10;;;1.50;;
19163;SDS011;9714;51.208;4.242;2023-02-28T11:30:29;5.03;;;1.70;;
19163;SDS011;9714;51.208;4.242;2023-02-28T11:35:53;3.60;;;1.37;;
19163;SDS011;9714;51.208;4.242;2023-02-28T11:38:26;8.10;;;1.50;;
19163;SDS011;9714;51.208;4.242;2023-02-28T11:41:05;5.03;;;1.50;;
19163;SDS011;9714;51.208;4.242;2023-02-28T11:43:53;4.83;;;1.30;;
19163;SDS011;9714;51.208;4.242;2023-02-28T11:46:30;3.90;;;1.40;;
19163;SDS011;9714;51.208;4.242;2023-02-28T11:49:07;4.73;;;1.43;;
19163;SDS011;9714;51.208;4.242;2023-02-28T11:51:48;6.77;;;1.83;;
19163;SDS011;9714;51.208;4.242;2023-02-28T11:57:33;10.90;;;2.20;;
19163;SDS011;9714;51.208;4.242;2023-02-28T12:02:53;3.90;;;1.50;;
19163;SDS011;9714;51.208;4.242;2023-02-28T12:05:32;4.37;;;1.40;;
19163;SDS011;9714;51.208;4.242;2023-02-28T12:08:07;7.00;;;1.60;;
19163;SDS011;9714;51.208;4.242;2023-02-28T12:11:02;3.60;;;1.30;;
19163;SDS011;9714;51.208;4.242;2023-02-28T12:16:38;4.73;;;1.60;;
19163;SDS011;9714;51.208;4.242;2023-02-28T12:19:16;4.57;;;1.67;;
19163;SDS011;9714;51.208;4.242;2023-02-28T12:27:56;4.93;;;1.50;;
19163;SDS011;9714;51.208;4.242;2023-02-28T12:30:24;7.43;;;1.90;;
19163;SDS011;9714;51.208;4.242;2023-02-28T12:33:03;5.33;;;1.70;;
19163;SDS011;9714;51.208;4.242;2023-02-28T12:35:51;4.93;;;1.50;;
19163;SDS011;9714;51.208;4.242;2023-02-28T12:38:25;6.03;;;1.90;;
19163;SDS011;9714;51.208;4.242;2023-02-28T12:41:11;4.23;;;1.30;;
19163;SDS011;9714;51.208;4.242;2023-02-28T12:43:42;3.60;;;1.20;;
19163;SDS011;9714;51.208;4.242;2023-02-28T12:46:17;5.67;;;1.73;;
19163;SDS011;9714;51.208;4.242;2023-02-28T12:48:56;4.23;;;1.67;;
19163;SDS011;9714;51.208;4.242;2023-02-28T12:51:42;10.20;;;1.67;;
19163;SDS011;9714;51.208;4.242;2023-02-28T12:54:19;6.23;;;1.63;;
19163;SDS011;9714;51.208;4.242;2023-02-28T12:56:53;5.10;;;1.60;;
19163;SDS011;9714;51.208;4.242;2023-02-28T12:59:27;7.23;;;1.77;;
19163;SDS011;9714;51.208;4.242;2023-02-28T13:10:56;6.57;;;1.97;;
19163;SDS011;9714;51.208;4.242;2023-02-28T13:13:27;5.17;;;1.67;;
19163;SDS011;9714;51.208;4.242;2023-02-28T13:21:45;10.00;;;3.13;;
19163;SDS011;9714;51.208;4.242;2023-02-28T13:27:32;6.27;;;1.60;;
19163;SDS011;9714;51.208;4.242;2023-02-28T13:33:22;7.13;;;2.00;;
19163;SDS011;9714;51.208;4.242;2023-02-28T13:38:54;7.80;;;2.10;;
19163;SDS011;9714;51.208;4.242;2023-02-28T13:44:13;7.50;;;2.10;;
19163;SDS011;9714;51.208;4.242;2023-02-28T13:50:14;6.53;;;2.00;;
19163;SDS011;9714;51.208;4.242;2023-02-28T13:52:52;5.07;;;2.00;;
19163;SDS011;9714;51.208;4.242;2023-02-28T13:55:34;4.03;;;1.60;;
19163;SDS011;9714;51.208;4.242;2023-02-28T13:58:31;6.00;;;1.90;;
19163;SDS011;9714;51.208;4.242;2023-02-28T14:01:20;7.00;;;1.70;;
19163;SDS011;9714;51.208;4.242;2023-02-28T14:04:12;6.43;;;1.97;;
19163;SDS011;9714;51.208;4.242;2023-02-28T14:07:07;8.47;;;2.40;;
19163;SDS011;9714;51.208;4.242;2023-02-28T14:09:55;7.83;;;1.97;;
19163;SDS011;9714;51.208;4.242;2023-02-28T14:15:54;4.93;;;2.00;;
19163;SDS011;9714;51.208;4.242;2023-02-28T14:18:24;7.80;;;2.20;;
19163;SDS011;9714;51.208;4.242;2023-02-28T14:20:59;7.03;;;1.70;;
19163;SDS011;9714;51.208;4.242;2023-02-28T14:23:57;8.07;;;2.30;;
19163;SDS011;9714;51.208;4.242;2023-02-28T14:27:04;5.60;;;2.00;;
19163;SDS011;9714;51.208;4.242;2023-02-28T14:30:02;7.03;;;2.20;;
19163;SDS011;9714;51.208;4.242;2023-02-28T14:32:51;6.40;;;2.00;;
19163;SDS011;9714;51.208;4.242;2023-02-28T14:35:36;5.63;;;2.30;;
19163;SDS011;9714;51.208;4.242;2023-02-28T14:38:14;8.13;;;2.73;;
19163;SDS011;9714;51.208;4.242;2023-02-28T14:40:49;6.40;;;2.30;;
19163;SDS011;9714;51.208;4.242;2023-02-28T14:43:22;10.77;;;2.50;;
19163;SDS011;9714;51.208;4.242;2023-02-28T14:45:52;11.43;;;2.50;;
19163;SDS011;9714;51.208;4.242;2023-02-28T14:48:24;6.40;;;2.13;;
19163;SDS011;9714;51.208;4.242;2023-02-28T14:50:58;7.53;;;2.47;;
19163;SDS011;9714;51.208;4.242;2023-02-28T14:53:35;8.97;;;2.50;;
19163;SDS011;9714;51.208;4.242;2023-02-28T14:58:58;7.87;;;2.27;;
19163;SDS011;9714;51.208;4.242;2023-02-28T15:01:26;8.23;;;2.10;;
19163;SDS011;9714;51.208;4.242;2023-02-28T15:04:00;7.67;;;2.63;;
19163;SDS011;9714;51.208;4.242;2023-02-28T15:06:35;7.13;;;2.40;;
19163;SDS011;9714;51.208;4.242;2023-02-28T15:09:14;11.47;;;2.80;;
19163;SDS011;9714;51.208;4.242;2023-02-28T15:14:42;9.87;;;2.83;;
19163;SDS011;9714;51.208;4.242;2023-02-28T15:17:14;6.33;;;2.40;;
19163;SDS011;9714;51.208;4.242;2023-02-28T15:19:54;7.93;;;2.40;;
19163;SDS011;9714;51.208;4.242;2023-02-28T15:22:24;8.40;;;2.27;;
19163;SDS011;9714;51.208;4.242;2023-02-28T15:24:59;5.60;;;2.03;;
19163;SDS011;9714;51.208;4.242;2023-02-28T15:27:29;9.10;;;2.33;;
19163;SDS011;9714;51.208;4.242;2023-02-28T15:30:05;9.13;;;2.10;;
19163;SDS011;9714;51.208;4.242;2023-02-28T15:38:13;7.40;;;2.33;;
19163;SDS011;9714;51.208;4.242;2023-02-28T15:47:14;4.70;;;1.70;;
19163;SDS011;9714;51.208;4.242;2023-02-28T15:49:47;6.93;;;2.27;;
19163;SDS011;9714;51.208;4.242;2023-02-28T15:52:20;6.93;;;2.20;;
19163;SDS011;9714;51.208;4.242;2023-02-28T15:57:41;8.27;;;2.17;;
19163;SDS011;9714;51.208;4.242;2023-02-28T16:00:10;7.27;;;2.37;;
19163;SDS011;9714;51.208;4.242;2023-02-28T16:02:40;6.43;;;2.53;;
19163;SDS011;9714;51.208;4.242;2023-02-28T16:08:11;5.87;;;2.17;;
19163;SDS011;9714;51.208;4.242;2023-02-28T16:10:46;9.70;;;2.70;;
19163;SDS011;9714;51.208;4.242;2023-02-28T16:13:19;6.03;;;2.20;;
19163;SDS011;9714;51.208;4.242;2023-02-28T16:15:51;11.30;;;2.60;;
19163;SDS011;9714;51.208;4.242;2023-02-28T16:20:49;7.90;;;2.70;;
19163;SDS011;9714;51.208;4.242;2023-02-28T16:23:24;9.33;;;2.77;;
19163;SDS011;9714;51.208;4.242;2023-02-28T16:25:52;8.17;;;2.27;;
19163;SDS011;9714;51.208;4.242;2023-02-28T16:28:20;8.13;;;2.57;;
19163;SDS011;9714;51.208;4.242;2023-02-28T16:30:54;10.23;;;2.77;;
19163;SDS011;9714;51.208;4.242;2023-02-28T16:33:22;4.70;;;1.77;;
19163;SDS011;9714;51.208;4.242;2023-02-28T16:35:50;7.40;;;2.70;;
19163;SDS011;9714;51.208;4.242;2023-02-28T16:38:24;5.90;;;2.00;;
19163;SDS011;9714;51.208;4.242;2023-02-28T16:40:55;10.70;;;2.37;;
19163;SDS011;9714;51.208;4.242;2023-02-28T16:43:24;9.00;;;2.30;;
19163;SDS011;9714;51.208;4.242;2023-02-28T16:48:38;11.50;;;3.30;;
19163;SDS011;9714;51.208;4.242;2023-02-28T16:51:13;8.37;;;2.87;;
19163;SDS011;9714;51.208;4.242;2023-02-28T16:53:48;8.13;;;2.50;;
19163;SDS011;9714;51.208;4.242;2023-02-28T16:56:17;7.20;;;2.47;;
19163;SDS011;9714;51.208;4.242;2023-02-28T16:58:48;6.67;;;2.80;;
19163;SDS011;9714;51.208;4.242;2023-02-28T17:07:32;10.47;;;2.60;;
19163;SDS011;9714;51.208;4.242;2023-02-28T17:10:00;8.33;;;2.80;;
19163;SDS011;9714;51.208;4.242;2023-02-28T17:15:55;7.77;;;2.00;;
19163;SDS011;9714;51.208;4.242;2023-02-28T17:18:29;6.00;;;2.33;;
19163;SDS011;9714;51.208;4.242;2023-02-28T17:21:01;6.60;;;2.33;;
19163;SDS011;9714;51.208;4.242;2023-02-28T17:23:29;7.40;;;2.93;;
19163;SDS011;9714;51.208;4.242;2023-02-28T17:25:59;6.97;;;2.83;;
19163;SDS011;9714;51.208;4.242;2023-02-28T17:28:28;10.03;;;3.10;;